Terminal Aerodrome Forecast
Issued by NWS Omaha/Valley, NE

Home | Current Version | Previous Version | Text Only | Print | Product List | Glossary On
Versions: 1 2 3 4 5 6 7 8 9 10 11 12 13 14 15 16 17 18 19 20 21 22 23 24 25 26 27 28 29 30 31 32 33 34 35 36 37 38
000
FTUS43 KOAX 220821 AAA
TAFOFK
TAF AMD
KOFK 220821Z 2208/2306 29005KT 6SM HZ BKN005 BKN100
      TEMPO 2208/2211 2SM BR OVC005
     FM221100 33004KT 6SM HZ BKN250
     FM221600 01008KT P6SM BKN250=

USA.gov is the U.S. government's official web portal to all federal, state and local government web resources and services.